sensor_id;sensor_type;location;lat;lon;timestamp;pressure;altitude;pressure_sealevel;temperature;humidity
31771;BME280;18343;50.152;8.182;2023-02-02T00:01:27;97818.41;;;6.04;100.00
31771;BME280;18343;50.152;8.182;2023-02-02T00:04:16;97815.91;;;5.85;100.00
31771;BME280;18343;50.152;8.182;2023-02-02T00:07:02;97816.38;;;5.98;100.00
31771;BME280;18343;50.152;8.182;2023-02-02T00:09:50;97818.41;;;6.22;100.00
31771;BME280;18343;50.152;8.182;2023-02-02T00:12:34;97812.41;;;5.67;100.00
31771;BME280;18343;50.152;8.182;2023-02-02T00:15:20;97803.78;;;5.55;100.00
31771;BME280;18343;50.152;8.182;2023-02-02T00:18:05;97811.97;;;5.71;100.00
31771;BME280;18343;50.152;8.182;2023-02-02T00:20:50;97809.28;;;5.36;100.00
31771;BME280;18343;50.152;8.182;2023-02-02T00:23:35;97806.63;;;5.89;100.00
31771;BME280;18343;50.152;8.182;2023-02-02T00:26:19;97811.88;;;5.99;100.00
31771;BME280;18343;50.152;8.182;2023-02-02T00:29:06;97818.22;;;5.98;100.00
31771;BME280;18343;50.152;8.182;2023-02-02T00:31:54;97810.28;;;5.70;100.00
31771;BME280;18343;50.152;8.182;2023-02-02T00:34:38;97820.25;;;5.86;100.00
31771;BME280;18343;50.152;8.182;2023-02-02T00:37:23;97808.44;;;6.06;100.00
31771;BME280;18343;50.152;8.182;2023-02-02T00:40:09;97810.25;;;6.06;100.00
31771;BME280;18343;50.152;8.182;2023-02-02T00:42:54;97809.41;;;6.05;100.00
31771;BME280;18343;50.152;8.182;2023-02-02T00:45:39;97801.19;;;5.81;100.00
31771;BME280;18343;50.152;8.182;2023-02-02T00:48:25;97807.38;;;5.99;100.00
31771;BME280;18343;50.152;8.182;2023-02-02T00:51:09;97807.06;;;5.67;100.00
31771;BME280;18343;50.152;8.182;2023-02-02T00:53:54;97806.31;;;5.92;100.00
31771;BME280;18343;50.152;8.182;2023-02-02T00:56:39;97806.13;;;6.11;100.00
31771;BME280;18343;50.152;8.182;2023-02-02T00:59:24;97807.00;;;5.94;100.00
31771;BME280;18343;50.152;8.182;2023-02-02T01:02:08;97811.56;;;6.02;100.00
31771;BME280;18343;50.152;8.182;2023-02-02T01:04:55;97816.75;;;6.03;100.00
31771;BME280;18343;50.152;8.182;2023-02-02T01:07:40;97816.75;;;5.86;100.00
31771;BME280;18343;50.152;8.182;2023-02-02T01:10:25;97823.75;;;6.04;100.00
31771;BME280;18343;50.152;8.182;2023-02-02T01:13:10;97818.66;;;6.11;100.00
31771;BME280;18343;50.152;8.182;2023-02-02T01:15:55;97818.50;;;6.13;100.00
31771;BME280;18343;50.152;8.182;2023-02-02T01:18:39;97818.44;;;6.30;100.00
31771;BME280;18343;50.152;8.182;2023-02-02T01:21:25;97821.53;;;6.43;100.00
31771;BME280;18343;50.152;8.182;2023-02-02T01:24:10;97826.75;;;6.01;100.00
31771;BME280;18343;50.152;8.182;2023-02-02T01:26:55;97831.00;;;6.12;100.00
31771;BME280;18343;50.152;8.182;2023-02-02T01:29:40;97837.41;;;5.84;100.00
31771;BME280;18343;50.152;8.182;2023-02-02T01:32:25;97836.34;;;5.59;100.00
31771;BME280;18343;50.152;8.182;2023-02-02T01:35:10;97834.22;;;5.62;100.00
31771;BME280;18343;50.152;8.182;2023-02-02T01:37:56;97832.91;;;6.20;100.00
31771;BME280;18343;50.152;8.182;2023-02-02T01:40:47;97826.81;;;6.35;100.00
31771;BME280;18343;50.152;8.182;2023-02-02T01:43:56;97831.56;;;5.98;100.00
31771;BME280;18343;50.152;8.182;2023-02-02T01:46:40;97832.97;;;6.28;100.00
31771;BME280;18343;50.152;8.182;2023-02-02T01:49:25;97830.94;;;6.30;100.00
31771;BME280;18343;50.152;8.182;2023-02-02T01:52:10;97827.25;;;6.05;100.00
31771;BME280;18343;50.152;8.182;2023-02-02T01:55:02;97817.03;;;6.18;100.00
31771;BME280;18343;50.152;8.182;2023-02-02T01:57:55;97818.94;;;6.26;100.00
31771;BME280;18343;50.152;8.182;2023-02-02T02:00:42;97819.72;;;6.44;100.00
31771;BME280;18343;50.152;8.182;2023-02-02T02:03:30;97819.09;;;6.24;100.00
31771;BME280;18343;50.152;8.182;2023-02-02T02:06:17;97830.66;;;6.33;100.00
31771;BME280;18343;50.152;8.182;2023-02-02T02:09:05;97832.91;;;6.20;100.00
31771;BME280;18343;50.152;8.182;2023-02-02T02:11:53;97835.00;;;6.34;100.00
31771;BME280;18343;50.152;8.182;2023-02-02T02:14:37;97831.81;;;6.56;100.00
31771;BME280;18343;50.152;8.182;2023-02-02T02:17:39;97831.69;;;6.66;100.00
31771;BME280;18343;50.152;8.182;2023-02-02T02:21:19;97837.78;;;6.50;100.00
31771;BME280;18343;50.152;8.182;2023-02-02T02:25:07;97834.44;;;6.48;100.00
31771;BME280;18343;50.152;8.182;2023-02-02T02:32:10;97833.13;;;6.26;100.00
31771;BME280;18343;50.152;8.182;2023-02-02T02:35:03;97830.94;;;6.48;100.00
31771;BME280;18343;50.152;8.182;2023-02-02T02:37:54;97829.63;;;6.52;100.00
31771;BME280;18343;50.152;8.182;2023-02-02T02:40:45;97829.81;;;6.58;100.00
31771;BME280;18343;50.152;8.182;2023-02-02T02:43:34;97838.50;;;6.60;100.00
31771;BME280;18343;50.152;8.182;2023-02-02T02:46:22;97834.53;;;6.38;100.00
31771;BME280;18343;50.152;8.182;2023-02-02T02:49:11;97839.56;;;6.67;100.00
31771;BME280;18343;50.152;8.182;2023-02-02T02:51:56;97847.34;;;6.61;100.00
31771;BME280;18343;50.152;8.182;2023-02-02T02:54:43;97841.47;;;6.31;100.00
31771;BME280;18343;50.152;8.182;2023-02-02T02:57:44;97844.72;;;6.17;100.00
31771;BME280;18343;50.152;8.182;2023-02-02T03:00:50;97848.63;;;6.49;100.00
31771;BME280;18343;50.152;8.182;2023-02-02T03:04:06;97844.38;;;6.38;100.00
31771;BME280;18343;50.152;8.182;2023-02-02T03:06:58;97854.72;;;5.79;100.00
31771;BME280;18343;50.152;8.182;2023-02-02T03:09:45;97846.25;;;6.20;100.00
31771;BME280;18343;50.152;8.182;2023-02-02T03:12:31;97846.59;;;6.42;100.00
31771;BME280;18343;50.152;8.182;2023-02-02T03:15:17;97841.03;;;6.36;100.00
31771;BME280;18343;50.152;8.182;2023-02-02T03:18:02;97846.06;;;6.39;100.00
31771;BME280;18343;50.152;8.182;2023-02-02T03:20:46;97844.66;;;6.53;100.00
31771;BME280;18343;50.152;8.182;2023-02-02T03:23:32;97847.63;;;6.06;100.00
31771;BME280;18343;50.152;8.182;2023-02-02T03:26:17;97851.13;;;6.24;100.00
31771;BME280;18343;50.152;8.182;2023-02-02T03:29:02;97842.53;;;6.38;100.00
31771;BME280;18343;50.152;8.182;2023-02-02T03:31:47;97840.25;;;6.00;100.00
31771;BME280;18343;50.152;8.182;2023-02-02T03:34:32;97845.91;;;5.97;100.00
31771;BME280;18343;50.152;8.182;2023-02-02T03:37:17;97837.56;;;6.18;100.00
31771;BME280;18343;50.152;8.182;2023-02-02T03:40:04;97836.66;;;6.09;100.00
31771;BME280;18343;50.152;8.182;2023-02-02T03:42:49;97837.19;;;6.13;100.00
31771;BME280;18343;50.152;8.182;2023-02-02T03:45:34;97851.91;;;6.17;100.00
31771;BME280;18343;50.152;8.182;2023-02-02T03:48:19;97845.72;;;6.16;100.00
31771;BME280;18343;50.152;8.182;2023-02-02T03:51:07;97849.41;;;5.97;100.00
31771;BME280;18343;50.152;8.182;2023-02-02T03:53:52;97854.34;;;6.28;100.00
31771;BME280;18343;50.152;8.182;2023-02-02T03:56:38;97858.84;;;6.09;100.00
31771;BME280;18343;50.152;8.182;2023-02-02T03:59:23;97846.00;;;6.31;100.00
31771;BME280;18343;50.152;8.182;2023-02-02T04:02:07;97846.09;;;6.21;100.00
31771;BME280;18343;50.152;8.182;2023-02-02T04:04:52;97848.47;;;6.24;100.00
31771;BME280;18343;50.152;8.182;2023-02-02T04:07:37;97852.00;;;6.33;100.00
31771;BME280;18343;50.152;8.182;2023-02-02T04:10:21;97857.00;;;6.28;100.00
31771;BME280;18343;50.152;8.182;2023-02-02T04:13:07;97861.56;;;6.35;100.00
31771;BME280;18343;50.152;8.182;2023-02-02T04:15:56;97862.38;;;6.36;100.00
31771;BME280;18343;50.152;8.182;2023-02-02T04:18:41;97861.41;;;6.37;100.00
31771;BME280;18343;50.152;8.182;2023-02-02T04:21:26;97869.72;;;6.34;100.00
31771;BME280;18343;50.152;8.182;2023-02-02T04:24:12;97857.84;;;6.28;100.00
31771;BME280;18343;50.152;8.182;2023-02-02T04:26:56;97868.47;;;6.20;100.00
31771;BME280;18343;50.152;8.182;2023-02-02T04:29:42;97876.09;;;6.15;100.00
31771;BME280;18343;50.152;8.182;2023-02-02T04:32:27;97869.53;;;6.09;100.00
31771;BME280;18343;50.152;8.182;2023-02-02T04:35:12;97877.03;;;6.32;100.00
31771;BME280;18343;50.152;8.182;2023-02-02T04:37:57;97874.50;;;6.48;100.00
31771;BME280;18343;50.152;8.182;2023-02-02T04:40:43;97882.59;;;6.38;100.00
31771;BME280;18343;50.152;8.182;2023-02-02T04:43:28;97885.06;;;6.32;100.00
31771;BME280;18343;50.152;8.182;2023-02-02T04:46:14;97898.34;;;6.06;100.00
31771;BME280;18343;50.152;8.182;2023-02-02T04:48:59;97895.00;;;6.04;100.00
31771;BME280;18343;50.152;8.182;2023-02-02T04:51:44;97896.91;;;6.11;100.00
31771;BME280;18343;50.152;8.182;2023-02-02T04:54:28;97895.13;;;5.85;100.00
31771;BME280;18343;50.152;8.182;2023-02-02T04:57:13;97893.44;;;5.84;100.00
31771;BME280;18343;50.152;8.182;2023-02-02T04:59:59;97893.69;;;5.72;100.00
31771;BME280;18343;50.152;8.182;2023-02-02T05:02:45;97887.88;;;5.77;100.00
31771;BME280;18343;50.152;8.182;2023-02-02T05:05:29;97898.78;;;5.84;100.00
31771;BME280;18343;50.152;8.182;2023-02-02T05:08:14;97892.03;;;6.07;100.00
31771;BME280;18343;50.152;8.182;2023-02-02T05:10:59;97896.16;;;6.19;100.00
31771;BME280;18343;50.152;8.182;2023-02-02T05:13:45;97901.72;;;6.08;100.00
31771;BME280;18343;50.152;8.182;2023-02-02T05:16:30;97902.81;;;5.97;100.00
31771;BME280;18343;50.152;8.182;2023-02-02T05:19:16;97897.38;;;6.07;100.00
31771;BME280;18343;50.152;8.182;2023-02-02T05:22:00;97904.47;;;5.98;100.00
31771;BME280;18343;50.152;8.182;2023-02-02T05:24:45;97909.81;;;5.98;100.00
31771;BME280;18343;50.152;8.182;2023-02-02T05:27:30;97906.03;;;6.44;100.00
31771;BME280;18343;50.152;8.182;2023-02-02T05:30:15;97907.38;;;6.23;100.00
31771;BME280;18343;50.152;8.182;2023-02-02T05:33:01;97909.34;;;6.03;100.00
31771;BME280;18343;50.152;8.182;2023-02-02T05:35:48;97903.31;;;6.19;100.00
31771;BME280;18343;50.152;8.182;2023-02-02T05:38:33;97906.63;;;5.95;100.00
31771;BME280;18343;50.152;8.182;2023-02-02T05:41:18;97920.19;;;6.01;100.00
31771;BME280;18343;50.152;8.182;2023-02-02T05:44:02;97918.66;;;6.17;100.00
31771;BME280;18343;50.152;8.182;2023-02-02T05:46:47;97923.63;;;5.94;100.00
31771;BME280;18343;50.152;8.182;2023-02-02T05:49:33;97926.25;;;6.29;100.00
31771;BME280;18343;50.152;8.182;2023-02-02T05:52:21;97918.75;;;6.25;100.00
31771;BME280;18343;50.152;8.182;2023-02-02T05:55:08;97928.16;;;6.37;100.00
31771;BME280;18343;50.152;8.182;2023-02-02T05:57:53;97920.19;;;6.19;100.00
31771;BME280;18343;50.152;8.182;2023-02-02T06:00:37;97924.75;;;5.91;100.00
31771;BME280;18343;50.152;8.182;2023-02-02T06:03:22;97918.44;;;5.92;100.00
31771;BME280;18343;50.152;8.182;2023-02-02T06:06:07;97931.31;;;6.15;100.00
31771;BME280;18343;50.152;8.182;2023-02-02T06:08:53;97935.13;;;6.12;100.00
31771;BME280;18343;50.152;8.182;2023-02-02T06:11:37;97931.78;;;6.10;100.00
31771;BME280;18343;50.152;8.182;2023-02-02T06:14:22;97931.78;;;6.28;100.00
31771;BME280;18343;50.152;8.182;2023-02-02T06:17:06;97944.44;;;6.43;100.00
31771;BME280;18343;50.152;8.182;2023-02-02T06:19:51;97942.91;;;6.41;100.00
31771;BME280;18343;50.152;8.182;2023-02-02T06:22:36;97936.56;;;6.06;100.00
31771;BME280;18343;50.152;8.182;2023-02-02T06:25:22;97935.44;;;6.09;100.00
31771;BME280;18343;50.152;8.182;2023-02-02T06:28:07;97940.53;;;6.38;100.00
31771;BME280;18343;50.152;8.182;2023-02-02T06:30:52;97937.50;;;5.97;100.00
31771;BME280;18343;50.152;8.182;2023-02-02T06:33:37;97941.00;;;6.16;100.00
31771;BME280;18343;50.152;8.182;2023-02-02T06:36:22;97946.59;;;6.22;100.00
31771;BME280;18343;50.152;8.182;2023-02-02T06:39:07;97939.47;;;6.31;100.00
31771;BME280;18343;50.152;8.182;2023-02-02T06:41:54;97933.97;;;6.32;100.00
31771;BME280;18343;50.152;8.182;2023-02-02T06:44:38;97941.84;;;6.16;100.00
31771;BME280;18343;50.152;8.182;2023-02-02T06:47:23;97947.34;;;6.15;100.00
31771;BME280;18343;50.152;8.182;2023-02-02T06:50:09;97949.66;;;6.27;100.00
31771;BME280;18343;50.152;8.182;2023-02-02T06:52:54;97955.63;;;6.29;100.00
31771;BME280;18343;50.152;8.182;2023-02-02T06:55:39;97944.97;;;6.29;100.00
31771;BME280;18343;50.152;8.182;2023-02-02T06:58:25;97935.44;;;6.09;100.00
31771;BME280;18343;50.152;8.182;2023-02-02T07:01:12;97949.16;;;6.14;100.00
31771;BME280;18343;50.152;8.182;2023-02-02T07:03:57;97948.66;;;6.28;100.00
31771;BME280;18343;50.152;8.182;2023-02-02T07:06:42;97945.28;;;6.44;100.00
31771;BME280;18343;50.152;8.182;2023-02-02T07:09:26;97943.97;;;6.30;100.00
31771;BME280;18343;50.152;8.182;2023-02-02T07:12:11;97958.78;;;6.42;100.00
31771;BME280;18343;50.152;8.182;2023-02-02T07:14:57;97952.44;;;6.43;100.00
31771;BME280;18343;50.152;8.182;2023-02-02T07:17:41;97951.88;;;6.58;100.00
31771;BME280;18343;50.152;8.182;2023-02-02T07:20:28;97955.88;;;6.54;100.00
31771;BME280;18343;50.152;8.182;2023-02-02T07:23:18;97960.31;;;6.27;100.00
31771;BME280;18343;50.152;8.182;2023-02-02T07:26:05;97966.03;;;6.32;100.00
31771;BME280;18343;50.152;8.182;2023-02-02T07:28:53;97967.88;;;6.50;100.00
31771;BME280;18343;50.152;8.182;2023-02-02T07:31:39;97965.19;;;6.32;100.00
31771;BME280;18343;50.152;8.182;2023-02-02T07:34:24;97973.50;;;6.47;100.00
31771;BME280;18343;50.152;8.182;2023-02-02T07:37:09;97980.66;;;6.10;100.00
31771;BME280;18343;50.152;8.182;2023-02-02T07:39:53;97976.50;;;6.26;100.00
31771;BME280;18343;50.152;8.182;2023-02-02T07:42:38;97991.28;;;6.20;100.00
31771;BME280;18343;50.152;8.182;2023-02-02T07:45:23;97983.97;;;6.40;100.00
31771;BME280;18343;50.152;8.182;2023-02-02T07:48:08;97983.09;;;6.04;100.00
31771;BME280;18343;50.152;8.182;2023-02-02T07:50:53;97977.09;;;6.37;100.00
31771;BME280;18343;50.152;8.182;2023-02-02T07:53:37;97992.97;;;6.21;100.00
31771;BME280;18343;50.152;8.182;2023-02-02T07:56:24;97983.28;;;6.20;100.00
31771;BME280;18343;50.152;8.182;2023-02-02T07:59:12;97980.91;;;6.17;100.00
31771;BME280;18343;50.152;8.182;2023-02-02T08:01:57;97973.81;;;6.43;100.00
31771;BME280;18343;50.152;8.182;2023-02-02T08:04:43;97978.38;;;6.33;100.00
31771;BME280;18343;50.152;8.182;2023-02-02T08:07:27;97977.63;;;6.41;100.00
31771;BME280;18343;50.152;8.182;2023-02-02T08:10:12;97978.00;;;6.10;100.00
31771;BME280;18343;50.152;8.182;2023-02-02T08:12:57;97990.50;;;5.83;100.00
31771;BME280;18343;50.152;8.182;2023-02-02T08:15:41;97982.06;;;5.60;100.00
31771;BME280;18343;50.152;8.182;2023-02-02T08:18:26;97982.34;;;5.84;100.00
31771;BME280;18343;50.152;8.182;2023-02-02T08:21:12;97985.06;;;6.02;100.00
31771;BME280;18343;50.152;8.182;2023-02-02T08:23:57;97985.16;;;6.10;100.00
31771;BME280;18343;50.152;8.182;2023-02-02T08:26:41;97988.31;;;6.41;100.00
31771;BME280;18343;50.152;8.182;2023-02-02T08:29:26;97987.63;;;6.39;100.00
31771;BME280;18343;50.152;8.182;2023-02-02T08:32:11;97989.28;;;6.58;100.00
31771;BME280;18343;50.152;8.182;2023-02-02T08:34:55;97982.97;;;6.41;100.00
31771;BME280;18343;50.152;8.182;2023-02-02T08:37:41;97993.66;;;6.41;100.00
31771;BME280;18343;50.152;8.182;2023-02-02T08:40:25;97991.59;;;6.17;100.00
31771;BME280;18343;50.152;8.182;2023-02-02T08:43:10;97996.63;;;6.20;100.00
31771;BME280;18343;50.152;8.182;2023-02-02T08:45:55;98000.69;;;6.24;100.00
31771;BME280;18343;50.152;8.182;2023-02-02T08:48:39;97980.16;;;6.42;100.00
31771;BME280;18343;50.152;8.182;2023-02-02T08:51:24;97993.34;;;6.44;100.00
31771;BME280;18343;50.152;8.182;2023-02-02T08:54:11;97991.19;;;5.94;100.00
31771;BME280;18343;50.152;8.182;2023-02-02T08:56:57;97984.81;;;6.23;100.00
31771;BME280;18343;50.152;8.182;2023-02-02T08:59:41;97994.47;;;6.06;100.00
31771;BME280;18343;50.152;8.182;2023-02-02T09:02:26;98005.94;;;6.16;100.00
31771;BME280;18343;50.152;8.182;2023-02-02T09:05:10;97991.91;;;6.50;100.00
31771;BME280;18343;50.152;8.182;2023-02-02T09:07:56;97992.88;;;6.31;100.00
31771;BME280;18343;50.152;8.182;2023-02-02T09:10:42;97999.69;;;6.43;100.00
31771;BME280;18343;50.152;8.182;2023-02-02T09:13:27;97994.13;;;6.54;100.00
31771;BME280;18343;50.152;8.182;2023-02-02T09:16:14;98003.25;;;6.69;100.00
31771;BME280;18343;50.152;8.182;2023-02-02T09:18:59;97995.69;;;6.65;100.00
31771;BME280;18343;50.152;8.182;2023-02-02T09:21:43;98008.31;;;6.72;100.00
31771;BME280;18343;50.152;8.182;2023-02-02T09:24:28;98004.72;;;6.64;100.00
31771;BME280;18343;50.152;8.182;2023-02-02T09:27:14;98027.25;;;6.43;100.00
31771;BME280;18343;50.152;8.182;2023-02-02T09:30:00;98021.84;;;6.53;100.00
31771;BME280;18343;50.152;8.182;2023-02-02T09:32:48;98029.00;;;6.53;100.00
31771;BME280;18343;50.152;8.182;2023-02-02T09:35:33;98015.41;;;6.46;100.00
31771;BME280;18343;50.152;8.182;2023-02-02T09:38:17;98022.09;;;6.86;100.00
31771;BME280;18343;50.152;8.182;2023-02-02T09:41:21;98017.66;;;6.94;100.00
31771;BME280;18343;50.152;8.182;2023-02-02T09:44:22;98027.28;;;6.87;100.00
31771;BME280;18343;50.152;8.182;2023-02-02T09:47:17;98038.75;;;6.62;100.00
31771;BME280;18343;50.152;8.182;2023-02-02T09:50:07;98036.25;;;6.60;100.00
31771;BME280;18343;50.152;8.182;2023-02-02T09:53:00;98045.50;;;6.84;100.00
31771;BME280;18343;50.152;8.182;2023-02-02T09:55:48;98037.97;;;6.87;100.00
31771;BME280;18343;50.152;8.182;2023-02-02T09:58:40;98046.28;;;7.02;100.00
31771;BME280;18343;50.152;8.182;2023-02-02T10:01:33;98051.06;;;7.16;100.00
31771;BME280;18343;50.152;8.182;2023-02-02T10:04:24;98066.78;;;6.93;100.00
31771;BME280;18343;50.152;8.182;2023-02-02T10:07:14;98068.94;;;6.72;100.00
31771;BME280;18343;50.152;8.182;2023-02-02T10:10:03;98063.44;;;6.56;100.00
31771;BME280;18343;50.152;8.182;2023-02-02T10:12:56;98062.28;;;6.76;100.00
31771;BME280;18343;50.152;8.182;2023-02-02T10:15:49;98082.75;;;6.67;100.00
31771;BME280;18343;50.152;8.182;2023-02-02T10:18:43;98080.75;;;6.87;100.00
31771;BME280;18343;50.152;8.182;2023-02-02T10:21:37;98073.66;;;6.96;100.00
31771;BME280;18343;50.152;8.182;2023-02-02T10:24:27;98086.31;;;6.58;100.00
31771;BME280;18343;50.152;8.182;2023-02-02T10:27:15;98078.41;;;7.28;100.00
31771;BME280;18343;50.152;8.182;2023-02-02T10:30:01;98079.03;;;7.22;100.00
31771;BME280;18343;50.152;8.182;2023-02-02T10:32:51;98082.47;;;7.14;100.00
31771;BME280;18343;50.152;8.182;2023-02-02T10:35:46;98086.06;;;7.23;100.00
31771;BME280;18343;50.152;8.182;2023-02-02T10:38:37;98082.81;;;7.11;100.00
31771;BME280;18343;50.152;8.182;2023-02-02T10:41:31;98084.94;;;7.07;100.00
31771;BME280;18343;50.152;8.182;2023-02-02T10:44:30;98081.19;;;7.18;100.00
31771;BME280;18343;50.152;8.182;2023-02-02T10:47:24;98087.53;;;7.43;100.00
31771;BME280;18343;50.152;8.182;2023-02-02T10:50:17;98079.81;;;7.40;100.00
31771;BME280;18343;50.152;8.182;2023-02-02T10:53:11;98071.59;;;7.59;100.00
31771;BME280;18343;50.152;8.182;2023-02-02T10:56:01;98090.25;;;7.25;100.00
31771;BME280;18343;50.152;8.182;2023-02-02T10:58:52;98098.31;;;6.90;100.00
31771;BME280;18343;50.152;8.182;2023-02-02T11:01:38;98094.66;;;6.73;100.00
31771;BME280;18343;50.152;8.182;2023-02-02T11:04:22;98091.84;;;7.10;100.00
31771;BME280;18343;50.152;8.182;2023-02-02T11:07:07;98100.91;;;6.64;100.00
31771;BME280;18343;50.152;8.182;2023-02-02T11:09:54;98090.50;;;7.14;100.00
31771;BME280;18343;50.152;8.182;2023-02-02T11:12:43;98092.91;;;6.64;100.00
31771;BME280;18343;50.152;8.182;2023-02-02T11:15:30;98085.94;;;7.06;100.00
31771;BME280;18343;50.152;8.182;2023-02-02T11:18:28;98093.50;;;6.93;100.00
31771;BME280;18343;50.152;8.182;2023-02-02T11:21:18;98094.09;;;7.23;100.00
31771;BME280;18343;50.152;8.182;2023-02-02T11:24:09;98088.34;;;7.18;100.00
31771;BME280;18343;50.152;8.182;2023-02-02T11:27:06;98090.00;;;7.10;100.00
31771;BME280;18343;50.152;8.182;2023-02-02T11:29:52;98100.44;;;7.22;100.00
31771;BME280;18343;50.152;8.182;2023-02-02T11:32:37;98099.38;;;7.14;100.00
31771;BME280;18343;50.152;8.182;2023-02-02T11:35:23;98101.72;;;7.35;100.00
31771;BME280;18343;50.152;8.182;2023-02-02T11:38:13;98094.25;;;7.21;100.00
31771;BME280;18343;50.152;8.182;2023-02-02T11:41:01;98097.56;;;7.41;100.00
31771;BME280;18343;50.152;8.182;2023-02-02T11:43:51;98090.56;;;7.66;100.00
31771;BME280;18343;50.152;8.182;2023-02-02T11:46:37;98093.84;;;7.86;100.00
31771;BME280;18343;50.152;8.182;2023-02-02T11:49:22;98095.22;;;7.38;100.00
31771;BME280;18343;50.152;8.182;2023-02-02T11:52:16;98093.25;;;7.48;100.00
31771;BME280;18343;50.152;8.182;2023-02-02T11:55:09;98096.25;;;7.45;100.00
31771;BME280;18343;50.152;8.182;2023-02-02T11:58:18;98087.03;;;7.65;100.00
31771;BME280;18343;50.152;8.182;2023-02-02T12:01:05;98087.19;;;7.64;100.00
31771;BME280;18343;50.152;8.182;2023-02-02T12:03:49;98084.59;;;7.80;100.00
31771;BME280;18343;50.152;8.182;2023-02-02T12:06:37;98088.50;;;7.60;100.00
31771;BME280;18343;50.152;8.182;2023-02-02T12:09:24;98097.69;;;7.57;100.00
31771;BME280;18343;50.152;8.182;2023-02-02T12:12:22;98078.81;;;7.93;100.00
31771;BME280;18343;50.152;8.182;2023-02-02T12:15:22;98094.91;;;8.01;100.00
31771;BME280;18343;50.152;8.182;2023-02-02T12:18:34;98096.06;;;7.64;100.00
31771;BME280;18343;50.152;8.182;2023-02-02T12:21:34;98089.94;;;8.14;100.00
31771;BME280;18343;50.152;8.182;2023-02-02T12:24:28;98102.63;;;8.04;100.00
31771;BME280;18343;50.152;8.182;2023-02-02T12:27:24;98097.03;;;7.89;100.00
31771;BME280;18343;50.152;8.182;2023-02-02T12:30:26;98094.09;;;7.48;100.00
31771;BME280;18343;50.152;8.182;2023-02-02T12:33:22;98094.41;;;7.20;100.00
31771;BME280;18343;50.152;8.182;2023-02-02T12:36:46;98085.34;;;7.38;100.00
31771;BME280;18343;50.152;8.182;2023-02-02T12:39:39;98088.38;;;7.69;100.00
31771;BME280;18343;50.152;8.182;2023-02-02T12:42:43;98094.66;;;8.20;100.00
31771;BME280;18343;50.152;8.182;2023-02-02T12:45:58;98093.78;;;7.77;100.00
31771;BME280;18343;50.152;8.182;2023-02-02T12:49:06;98092.53;;;7.64;100.00
31771;BME280;18343;50.152;8.182;2023-02-02T12:52:16;98099.88;;;7.96;100.00
31771;BME280;18343;50.152;8.182;2023-02-02T12:55:18;98108.00;;;8.12;100.00
31771;BME280;18343;50.152;8.182;2023-02-02T12:58:15;98111.31;;;7.46;100.00
31771;BME280;18343;50.152;8.182;2023-02-02T13:01:41;98109.75;;;7.87;100.00
31771;BME280;18343;50.152;8.182;2023-02-02T13:04:52;98101.63;;;8.05;100.00
31771;BME280;18343;50.152;8.182;2023-02-02T13:07:43;98114.63;;;7.92;100.00
31771;BME280;18343;50.152;8.182;2023-02-02T13:10:35;98121.16;;;7.63;100.00
31771;BME280;18343;50.152;8.182;2023-02-02T13:13:24;98102.91;;;7.67;100.00
31771;BME280;18343;50.152;8.182;2023-02-02T13:16:12;98111.28;;;7.64;100.00
31771;BME280;18343;50.152;8.182;2023-02-02T13:19:03;98105.53;;;7.85;100.00
31771;BME280;18343;50.152;8.182;2023-02-02T13:21:52;98108.59;;;7.98;100.00
31771;BME280;18343;50.152;8.182;2023-02-02T13:24:42;98112.16;;;7.46;100.00
31771;BME280;18343;50.152;8.182;2023-02-02T13:27:31;98109.53;;;7.80;100.00
31771;BME280;18343;50.152;8.182;2023-02-02T13:30:27;98112.59;;;7.94;100.00
31771;BME280;18343;50.152;8.182;2023-02-02T13:33:19;98124.56;;;8.07;100.00
31771;BME280;18343;50.152;8.182;2023-02-02T13:36:09;98124.91;;;7.78;100.00
31771;BME280;18343;50.152;8.182;2023-02-02T13:39:01;98122.47;;;7.93;100.00
31771;BME280;18343;50.152;8.182;2023-02-02T13:41:53;98118.78;;;7.34;100.00
31771;BME280;18343;50.152;8.182;2023-02-02T13:44:48;98125.06;;;7.51;100.00
31771;BME280;18343;50.152;8.182;2023-02-02T13:47:43;98131.94;;;7.79;100.00
31771;BME280;18343;50.152;8.182;2023-02-02T13:50:34;98121.44;;;7.86;100.00
31771;BME280;18343;50.152;8.182;2023-02-02T13:53:50;98124.66;;;7.20;100.00
31771;BME280;18343;50.152;8.182;2023-02-02T13:56:51;98133.69;;;7.89;100.00
31771;BME280;18343;50.152;8.182;2023-02-02T13:59:53;98125.25;;;8.09;100.00
31771;BME280;18343;50.152;8.182;2023-02-02T14:02:46;98139.19;;;7.87;100.00
31771;BME280;18343;50.152;8.182;2023-02-02T14:05:34;98143.63;;;8.04;100.00
31771;BME280;18343;50.152;8.182;2023-02-02T14:08:24;98148.31;;;7.76;100.00
31771;BME280;18343;50.152;8.182;2023-02-02T14:11:19;98140.09;;;8.04;100.00
31771;BME280;18343;50.152;8.182;2023-02-02T14:14:18;98140.16;;;8.12;100.00
31771;BME280;18343;50.152;8.182;2023-02-02T14:20:44;98152.75;;;7.94;100.00
31771;BME280;18343;50.152;8.182;2023-02-02T14:23:49;98157.41;;;7.84;100.00
31771;BME280;18343;50.152;8.182;2023-02-02T14:26:43;98169.13;;;7.82;100.00
31771;BME280;18343;50.152;8.182;2023-02-02T14:30:24;98156.13;;;7.96;100.00
31771;BME280;18343;50.152;8.182;2023-02-02T14:33:42;98169.50;;;7.96;100.00
31771;BME280;18343;50.152;8.182;2023-02-02T14:36:50;98161.16;;;7.91;100.00
31771;BME280;18343;50.152;8.182;2023-02-02T14:39:48;98172.56;;;7.75;100.00
31771;BME280;18343;50.152;8.182;2023-02-02T14:42:49;98183.44;;;7.73;100.00
31771;BME280;18343;50.152;8.182;2023-02-02T14:45:44;98194.03;;;7.57;100.00
31771;BME280;18343;50.152;8.182;2023-02-02T14:48:29;98188.44;;;7.51;100.00
31771;BME280;18343;50.152;8.182;2023-02-02T14:51:16;98193.31;;;7.73;100.00
31771;BME280;18343;50.152;8.182;2023-02-02T14:54:04;98207.22;;;7.76;100.00
31771;BME280;18343;50.152;8.182;2023-02-02T14:56:54;98187.53;;;8.11;100.00
31771;BME280;18343;50.152;8.182;2023-02-02T14:59:44;98204.59;;;7.85;100.00
31771;BME280;18343;50.152;8.182;2023-02-02T15:02:35;98205.97;;;7.89;100.00
31771;BME280;18343;50.152;8.182;2023-02-02T15:05:43;98205.91;;;7.80;100.00